Time;durP1;ratioP1;P1;durP2;ratioP2;P2;SDS_P1;SDS_P2;PMS_P1;PMS_P2;Temp;Humidity;BMP_temperature;BMP_pressure;BME280_temperature;BME280_humidity;BME280_pressure;Samples;Min_cycle;Max_cycle;Signal;HPM_P1;HPM_P2
2023/08/05 00:01:23;;;;;;;4.40;1.67;;;;;;;;;;5053923;28;20037;-88
2023/08/05 00:03:49;;;;;;;4.65;1.40;;;;;;;;;;5046952;28;20465;-89
2023/08/05 00:06:14;;;;;;;2.55;1.50;;;;;;;;;;5055042;28;20033;-88
2023/08/05 00:08:40;;;;;;;4.72;1.60;;;;;;;;;;5062408;28;20039;-87
2023/08/05 00:11:05;;;;;;;2.10;1.52;;;;;;;;;;5052479;28;20043;-87
2023/08/05 00:13:34;;;;;;;4.53;1.50;;;;;;;;;;5050370;28;20048;-87
2023/08/05 00:16:00;;;;;;;3.83;1.40;;;;;;;;;;5052481;28;20029;-87
2023/08/05 00:18:26;;;;;;;3.67;1.60;;;;;;;;;;5066747;23;20045;-85
2023/08/05 00:20:51;;;;;;;2.28;1.55;;;;;;;;;;5035426;28;20094;-84
2023/08/05 00:23:17;;;;;;;3.20;1.40;;;;;;;;;;5043207;28;20040;-83
2023/08/05 00:25:42;;;;;;;3.45;1.40;;;;;;;;;;5033537;28;20049;-83
2023/08/05 00:28:08;;;;;;;3.40;1.33;;;;;;;;;;5029157;28;20501;-82
2023/08/05 00:30:33;;;;;;;3.70;1.42;;;;;;;;;;5038099;28;20040;-85
2023/08/05 00:32:59;;;;;;;2.47;1.38;;;;;;;;;;5044034;28;20076;-83
2023/08/05 00:35:24;;;;;;;2.65;1.30;;;;;;;;;;5038034;28;20112;-84
2023/08/05 00:37:50;;;;;;;3.28;1.50;;;;;;;;;;5038361;28;20055;-85
2023/08/05 00:40:15;;;;;;;5.32;1.30;;;;;;;;;;5036446;28;20029;-83
2023/08/05 00:42:41;;;;;;;1.90;1.30;;;;;;;;;;5042923;28;20042;-81
2023/08/05 00:45:07;;;;;;;3.05;1.45;;;;;;;;;;5039571;28;20044;-82
2023/08/05 00:47:33;;;;;;;3.40;1.40;;;;;;;;;;5024455;28;20061;-85
2023/08/05 00:49:58;;;;;;;2.22;1.45;;;;;;;;;;5035149;28;20409;-83
2023/08/05 00:52:25;;;;;;;3.20;1.30;;;;;;;;;;5037537;28;20091;-82
2023/08/05 00:54:51;;;;;;;3.60;1.50;;;;;;;;;;5037901;28;20032;-83
2023/08/05 00:57:19;;;;;;;2.63;1.35;;;;;;;;;;5043501;28;20040;-83
2023/08/05 00:59:44;;;;;;;3.33;1.55;;;;;;;;;;5036867;28;20025;-82
2023/08/05 01:02:10;;;;;;;2.97;1.40;;;;;;;;;;5021712;28;20081;-83
2023/08/05 01:04:35;;;;;;;2.45;1.40;;;;;;;;;;5044459;28;20037;-81
2023/08/05 01:07:01;;;;;;;2.00;1.30;;;;;;;;;;5042906;28;20040;-82
2023/08/05 01:09:29;;;;;;;5.10;1.48;;;;;;;;;;5041804;28;20412;-83
2023/08/05 01:11:55;;;;;;;5.03;1.50;;;;;;;;;;5039189;28;20033;-83
2023/08/05 01:14:20;;;;;;;4.93;1.60;;;;;;;;;;5038347;28;20057;-82
2023/08/05 01:16:46;;;;;;;3.15;1.50;;;;;;;;;;5041690;28;20113;-81
2023/08/05 01:19:23;;;;;;;3.70;1.27;;;;;;;;;;5035894;28;20036;-84
2023/08/05 01:22:28;;;;;;;3.45;1.58;;;;;;;;;;5039490;28;20504;-83
2023/08/05 01:25:18;;;;;;;2.53;1.42;;;;;;;;;;5018843;28;20134;-82
2023/08/05 01:27:43;;;;;;;4.65;1.60;;;;;;;;;;5036191;28;20080;-82
2023/08/05 01:30:09;;;;;;;4.03;1.45;;;;;;;;;;5048331;28;20033;-80
2023/08/05 01:32:37;;;;;;;2.58;1.67;;;;;;;;;;5038139;28;20507;-84
2023/08/05 01:35:04;;;;;;;4.95;1.48;;;;;;;;;;5037410;28;20043;-85
2023/08/05 01:37:30;;;;;;;4.18;1.58;;;;;;;;;;5028860;28;20030;-83
2023/08/05 01:39:55;;;;;;;2.50;1.40;;;;;;;;;;5047358;28;20405;-83
2023/08/05 01:42:21;;;;;;;3.45;1.50;;;;;;;;;;5023484;28;20037;-82
2023/08/05 01:44:46;;;;;;;5.38;1.58;;;;;;;;;;5037573;28;20038;-80
2023/08/05 01:47:12;;;;;;;3.17;1.50;;;;;;;;;;5038670;28;20510;-83
2023/08/05 01:49:37;;;;;;;2.00;1.27;;;;;;;;;;5036046;28;20041;-83
2023/08/05 01:52:03;;;;;;;4.00;1.60;;;;;;;;;;5036605;28;20086;-82
2023/08/05 01:54:29;;;;;;;4.30;2.08;;;;;;;;;;5037204;28;20025;-85
2023/08/05 01:56:54;;;;;;;3.15;1.58;;;;;;;;;;5035157;28;20029;-82
2023/08/05 01:59:20;;;;;;;3.63;1.45;;;;;;;;;;5025922;28;20030;-83
2023/08/05 02:01:47;;;;;;;3.17;1.77;;;;;;;;;;5037184;28;20491;-84
2023/08/05 02:04:13;;;;;;;3.45;1.63;;;;;;;;;;5044752;28;20487;-83
2023/08/05 02:06:39;;;;;;;3.65;1.83;;;;;;;;;;5036606;28;20037;-82
2023/08/05 02:09:05;;;;;;;2.17;1.60;;;;;;;;;;5036667;28;20022;-83
2023/08/05 02:11:31;;;;;;;1.60;1.30;;;;;;;;;;5033579;28;20118;-83
2023/08/05 02:13:56;;;;;;;2.25;1.55;;;;;;;;;;5047367;28;20037;-84
2023/08/05 02:16:22;;;;;;;1.98;1.23;;;;;;;;;;5041089;28;20034;-83
2023/08/05 02:18:49;;;;;;;1.85;1.30;;;;;;;;;;5030788;28;20427;-83
2023/08/05 02:21:14;;;;;;;1.98;1.30;;;;;;;;;;5039812;28;20068;-83
2023/08/05 02:23:40;;;;;;;2.47;1.52;;;;;;;;;;5021457;28;20105;-82
2023/08/05 02:26:05;;;;;;;5.43;1.30;;;;;;;;;;5034861;28;20037;-82
2023/08/05 02:28:31;;;;;;;1.70;1.20;;;;;;;;;;5044083;28;20038;-84
2023/08/05 02:30:56;;;;;;;3.65;1.40;;;;;;;;;;5033070;28;20037;-80
2023/08/05 02:33:22;;;;;;;1.83;1.30;;;;;;;;;;5023086;28;20032;-79
2023/08/05 02:35:47;;;;;;;2.35;1.30;;;;;;;;;;5036867;28;20370;-82
2023/08/05 02:38:14;;;;;;;3.03;1.38;;;;;;;;;;5047058;28;20072;-84
2023/08/05 02:40:40;;;;;;;2.40;1.30;;;;;;;;;;5033951;28;20040;-82
2023/08/05 02:43:05;;;;;;;4.60;1.50;;;;;;;;;;5023750;28;20029;-81
2023/08/05 02:45:31;;;;;;;2.67;1.30;;;;;;;;;;5035481;28;20061;-82
2023/08/05 02:47:57;;;;;;;3.60;1.40;;;;;;;;;;5041362;28;20431;-83
2023/08/05 02:50:22;;;;;;;2.53;1.30;;;;;;;;;;5013345;28;20026;-83
2023/08/05 02:52:48;;;;;;;3.58;1.35;;;;;;;;;;5035743;28;20443;-81
2023/08/05 02:55:13;;;;;;;2.40;1.30;;;;;;;;;;5036951;28;20037;-82
2023/08/05 02:57:39;;;;;;;2.05;1.20;;;;;;;;;;5019550;28;20030;-81
2023/08/05 03:00:05;;;;;;;7.75;1.30;;;;;;;;;;5035353;28;20496;-82
2023/08/05 03:02:30;;;;;;;1.58;1.25;;;;;;;;;;5046076;28;20017;-80
2023/08/05 03:04:56;;;;;;;2.00;1.25;;;;;;;;;;5040875;28;20096;-82
2023/08/05 03:07:22;;;;;;;3.25;1.45;;;;;;;;;;5034721;28;20523;-82
2023/08/05 03:09:48;;;;;;;1.80;1.20;;;;;;;;;;5023307;28;20084;-84
2023/08/05 03:12:13;;;;;;;1.88;1.30;;;;;;;;;;5046493;28;20042;-82
2023/08/05 03:14:39;;;;;;;3.83;1.30;;;;;;;;;;5039491;28;20029;-80
2023/08/05 03:17:06;;;;;;;3.63;1.25;;;;;;;;;;5024783;28;20037;-80
2023/08/05 03:19:32;;;;;;;2.30;1.30;;;;;;;;;;5035826;28;20396;-81
2023/08/05 03:21:58;;;;;;;2.13;1.40;;;;;;;;;;5041655;28;20419;-80
2023/08/05 03:24:23;;;;;;;2.30;1.10;;;;;;;;;;5038516;28;20633;-80
2023/08/05 03:26:51;;;;;;;1.45;1.08;;;;;;;;;;5019739;28;20032;-82
2023/08/05 03:29:17;;;;;;;3.65;1.23;;;;;;;;;;5021075;28;20029;-82
2023/08/05 03:31:43;;;;;;;1.83;1.25;;;;;;;;;;5033220;28;20033;-82
2023/08/05 03:34:09;;;;;;;1.75;1.27;;;;;;;;;;5038729;28;20037;-80
2023/08/05 03:36:36;;;;;;;3.70;1.15;;;;;;;;;;5037406;28;20045;-83
2023/08/05 03:39:03;;;;;;;2.45;1.20;;;;;;;;;;5041506;28;20025;-82
2023/08/05 03:41:28;;;;;;;4.47;1.20;;;;;;;;;;5035979;28;20042;-82
2023/08/05 03:43:54;;;;;;;3.10;1.20;;;;;;;;;;5026739;28;20383;-84
2023/08/05 03:46:20;;;;;;;3.10;1.50;;;;;;;;;;5034323;28;20045;-81
2023/08/05 03:48:45;;;;;;;3.42;1.60;;;;;;;;;;5044415;28;20109;-80
2023/08/05 03:51:11;;;;;;;2.97;1.67;;;;;;;;;;5040018;28;20438;-80
2023/08/05 03:53:36;;;;;;;2.33;1.40;;;;;;;;;;5025037;28;20045;-80
2023/08/05 03:56:02;;;;;;;2.25;1.30;;;;;;;;;;5025612;28;20148;-81
2023/08/05 03:58:27;;;;;;;2.90;1.50;;;;;;;;;;5044500;28;20030;-81
2023/08/05 04:00:54;;;;;;;3.45;1.40;;;;;;;;;;5042567;28;20037;-84
2023/08/05 04:03:19;;;;;;;2.60;1.38;;;;;;;;;;5021252;28;20037;-84
2023/08/05 04:05:46;;;;;;;3.05;1.50;;;;;;;;;;5020017;28;20044;-83
2023/08/05 04:08:13;;;;;;;1.75;1.35;;;;;;;;;;5042007;28;20025;-83
2023/08/05 04:10:40;;;;;;;3.17;1.30;;;;;;;;;;5027372;28;20020;-83
2023/08/05 04:13:10;;;;;;;2.17;1.48;;;;;;;;;;5029737;28;20136;-83
2023/08/05 04:15:37;;;;;;;3.08;1.38;;;;;;;;;;5033292;28;20033;-84
2023/08/05 04:18:04;;;;;;;2.25;1.30;;;;;;;;;;5032087;28;20044;-83
2023/08/05 04:20:30;;;;;;;1.88;1.20;;;;;;;;;;5042997;28;20037;-82
2023/08/05 04:22:56;;;;;;;4.70;1.30;;;;;;;;;;5035449;28;20511;-82
2023/08/05 04:25:22;;;;;;;3.08;1.40;;;;;;;;;;5026665;28;20037;-82
2023/08/05 04:27:47;;;;;;;2.47;1.30;;;;;;;;;;5035445;28;20477;-80
2023/08/05 04:30:14;;;;;;;2.65;1.20;;;;;;;;;;5031043;28;20041;-83
2023/08/05 04:32:40;;;;;;;2.13;1.20;;;;;;;;;;5039734;28;20082;-82
2023/08/05 04:35:06;;;;;;;2.55;1.20;;;;;;;;;;5017959;28;20515;-81
2023/08/05 04:37:31;;;;;;;3.80;1.45;;;;;;;;;;5035969;28;20021;-82
2023/08/05 04:39:56;;;;;;;1.67;1.30;;;;;;;;;;5030427;28;20546;-82
2023/08/05 04:42:22;;;;;;;2.67;1.20;;;;;;;;;;5024643;28;20032;-83
2023/08/05 04:44:48;;;;;;;2.28;1.27;;;;;;;;;;5029339;28;20030;-82
2023/08/05 04:47:13;;;;;;;1.95;1.30;;;;;;;;;;5039043;28;20086;-80
2023/08/05 04:49:41;;;;;;;3.38;1.40;;;;;;;;;;5034516;28;20029;-84
2023/08/05 04:52:07;;;;;;;2.70;1.50;;;;;;;;;;5017498;28;20041;-83
2023/08/05 04:54:39;;;;;;;3.45;1.63;;;;;;;;;;5029088;28;20041;-82
2023/08/05 04:57:05;;;;;;;2.78;1.60;;;;;;;;;;5046244;28;20042;-85
2023/08/05 04:59:30;;;;;;;2.80;1.83;;;;;;;;;;5033511;28;20517;-83
2023/08/05 05:01:56;;;;;;;2.20;1.70;;;;;;;;;;5024334;28;20052;-82
2023/08/05 05:04:21;;;;;;;2.30;1.90;;;;;;;;;;5028329;28;20146;-82
2023/08/05 05:06:47;;;;;;;2.50;1.83;;;;;;;;;;5039029;28;20040;-84
2023/08/05 05:09:12;;;;;;;1.67;1.58;;;;;;;;;;5037473;28;20048;-82
2023/08/05 05:11:38;;;;;;;4.05;1.90;;;;;;;;;;5031367;28;20443;-84
2023/08/05 05:14:06;;;;;;;2.22;1.70;;;;;;;;;;5037675;28;20041;-82
2023/08/05 05:16:31;;;;;;;2.40;1.70;;;;;;;;;;5028596;28;20029;-86
2023/08/05 05:18:57;;;;;;;4.40;1.67;;;;;;;;;;5036518;28;20045;-82
2023/08/05 05:21:22;;;;;;;2.10;1.73;;;;;;;;;;5046780;28;20484;-81
2023/08/05 05:23:48;;;;;;;5.70;1.73;;;;;;;;;;5036795;28;20037;-80
2023/08/05 05:26:13;;;;;;;2.40;1.80;;;;;;;;;;5026147;28;20041;-81
2023/08/05 05:28:39;;;;;;;3.70;1.80;;;;;;;;;;5015062;28;20037;-81
2023/08/05 05:31:04;;;;;;;3.42;2.00;;;;;;;;;;5047565;28;20451;-83
2023/08/05 05:33:30;;;;;;;3.20;2.22;;;;;;;;;;5041475;28;20068;-83
2023/08/05 05:35:55;;;;;;;3.65;1.90;;;;;;;;;;5026749;28;20109;-82
2023/08/05 05:38:21;;;;;;;3.28;1.85;;;;;;;;;;5034736;28;20029;-82
2023/08/05 05:40:46;;;;;;;2.35;1.90;;;;;;;;;;5038882;28;20037;-83
2023/08/05 05:43:12;;;;;;;2.88;1.90;;;;;;;;;;5021240;28;20033;-83
2023/08/05 05:45:38;;;;;;;2.70;1.70;;;;;;;;;;5039895;28;20045;-82
2023/08/05 05:48:03;;;;;;;2.22;1.80;;;;;;;;;;5036148;28;20035;-83
2023/08/05 05:50:29;;;;;;;2.28;1.90;;;;;;;;;;5023254;28;20042;-81
2023/08/05 05:52:55;;;;;;;3.40;1.85;;;;;;;;;;5040623;28;20041;-82
2023/08/05 05:55:20;;;;;;;1.92;1.65;;;;;;;;;;5046495;28;20037;-83
2023/08/05 05:57:46;;;;;;;4.32;2.10;;;;;;;;;;5035711;28;20025;-82
2023/08/05 06:00:13;;;;;;;2.90;1.98;;;;;;;;;;5026674;28;20037;-80
2023/08/05 06:02:38;;;;;;;3.72;2.55;;;;;;;;;;5039621;28;20040;-82
2023/08/05 06:05:04;;;;;;;3.72;3.00;;;;;;;;;;5044716;28;20256;-81
2023/08/05 06:07:29;;;;;;;5.13;3.42;;;;;;;;;;5036445;28;20029;-81
2023/08/05 06:09:55;;;;;;;3.22;2.50;;;;;;;;;;5040388;28;20134;-81
2023/08/05 06:12:22;;;;;;;3.45;3.00;;;;;;;;;;5038024;28;20029;-83
2023/08/05 06:14:48;;;;;;;3.55;3.13;;;;;;;;;;5041842;28;20128;-79
2023/08/05 06:17:14;;;;;;;3.70;3.30;;;;;;;;;;5036819;28;20108;-79
2023/08/05 06:19:39;;;;;;;4.57;3.50;;;;;;;;;;5041989;28;20073;-82
2023/08/05 06:22:05;;;;;;;3.95;3.17;;;;;;;;;;5039166;28;20045;-81
2023/08/05 06:24:30;;;;;;;4.30;3.50;;;;;;;;;;5037418;28;20297;-81
2023/08/05 06:26:56;;;;;;;4.10;3.30;;;;;;;;;;5044202;28;20029;-81
2023/08/05 06:29:21;;;;;;;3.78;3.28;;;;;;;;;;5032630;28;20092;-82
2023/08/05 06:31:47;;;;;;;3.40;3.10;;;;;;;;;;5040929;28;20041;-84
2023/08/05 06:34:12;;;;;;;4.20;3.30;;;;;;;;;;5023910;28;20100;-83
2023/08/05 06:36:38;;;;;;;4.70;3.50;;;;;;;;;;5039325;28;20029;-83
2023/08/05 06:39:03;;;;;;;3.45;3.00;;;;;;;;;;5043592;28;20680;-83
2023/08/05 06:41:29;;;;;;;5.03;3.17;;;;;;;;;;5038541;28;20037;-85
2023/08/05 06:43:55;;;;;;;5.15;3.60;;;;;;;;;;5034087;28;20036;-84
2023/08/05 06:46:21;;;;;;;3.83;3.42;;;;;;;;;;5032738;28;20033;-82
2023/08/05 06:48:46;;;;;;;3.72;3.40;;;;;;;;;;5033245;28;20059;-83
2023/08/05 06:51:12;;;;;;;3.97;3.38;;;;;;;;;;5027314;28;20029;-84
2023/08/05 06:53:39;;;;;;;4.68;2.92;;;;;;;;;;5040240;28;20029;-83
2023/08/05 06:56:05;;;;;;;3.42;2.90;;;;;;;;;;5012938;28;20037;-82
2023/08/05 06:58:31;;;;;;;5.00;3.17;;;;;;;;;;5032300;28;20459;-82
2023/08/05 07:00:56;;;;;;;3.72;2.85;;;;;;;;;;5038927;28;20049;-83
2023/08/05 07:03:25;;;;;;;3.55;3.10;;;;;;;;;;5045939;28;20052;-82
2023/08/05 07:05:55;;;;;;;4.57;3.05;;;;;;;;;;5022595;28;20462;-84
2023/08/05 07:08:22;;;;;;;3.20;2.90;;;;;;;;;;5026328;28;20052;-82
2023/08/05 07:10:55;;;;;;;2.70;2.50;;;;;;;;;;5040429;28;20083;-82
2023/08/05 07:13:21;;;;;;;3.10;2.70;;;;;;;;;;5038041;28;20029;-83
2023/08/05 07:15:46;;;;;;;3.05;2.75;;;;;;;;;;5028540;28;20052;-81
2023/08/05 07:18:12;;;;;;;3.40;2.65;;;;;;;;;;5036189;28;20522;-81
2023/08/05 07:20:42;;;;;;;3.28;2.63;;;;;;;;;;5031360;28;20037;-79
2023/08/05 07:23:07;;;;;;;3.42;2.53;;;;;;;;;;5037465;28;20076;-82
2023/08/05 07:25:33;;;;;;;3.50;2.20;;;;;;;;;;5041159;28;20029;-81
2023/08/05 07:28:01;;;;;;;4.40;3.40;;;;;;;;;;5039479;28;20548;-82
2023/08/05 07:30:27;;;;;;;3.47;2.78;;;;;;;;;;5037205;28;20050;-83
2023/08/05 07:32:52;;;;;;;2.70;2.17;;;;;;;;;;5021277;28;20121;-80
2023/08/05 07:35:18;;;;;;;2.38;2.00;;;;;;;;;;5049994;28;20029;-81
2023/08/05 07:37:44;;;;;;;2.17;1.98;;;;;;;;;;5026413;28;20037;-80
2023/08/05 07:40:12;;;;;;;1.85;1.70;;;;;;;;;;5027539;28;20076;-81
2023/08/05 07:42:39;;;;;;;1.60;1.50;;;;;;;;;;5030589;28;20033;-79
2023/08/05 07:45:10;;;;;;;2.00;1.83;;;;;;;;;;5079252;23;20056;-89
2023/08/05 07:47:41;;;;;;;2.05;1.50;;;;;;;;;;5055841;28;20033;-86
2023/08/05 07:50:10;;;;;;;1.90;1.70;;;;;;;;;;5058661;28;20044;-88
2023/08/05 07:52:36;;;;;;;1.40;1.30;;;;;;;;;;5052627;28;20508;-89
2023/08/05 07:55:01;;;;;;;1.30;1.20;;;;;;;;;;5042778;28;20104;-89
2023/08/05 07:57:27;;;;;;;1.80;1.40;;;;;;;;;;5048819;28;20033;-88
2023/08/05 07:59:52;;;;;;;1.20;1.10;;;;;;;;;;5062544;28;20143;-88
2023/08/05 08:02:18;;;;;;;1.50;1.30;;;;;;;;;;5054101;28;20036;-89
2023/08/05 08:04:44;;;;;;;1.20;1.10;;;;;;;;;;5045843;28;20037;-87
2023/08/05 08:07:10;;;;;;;1.00;0.90;;;;;;;;;;5043645;28;20040;-87
2023/08/05 08:09:36;;;;;;;1.25;1.10;;;;;;;;;;5063944;28;20029;-89
2023/08/05 08:12:01;;;;;;;1.30;1.17;;;;;;;;;;5052584;28;20044;-87
2023/08/05 08:14:27;;;;;;;1.25;0.93;;;;;;;;;;5045296;28;20107;-88
2023/08/05 08:16:52;;;;;;;1.00;0.90;;;;;;;;;;5053802;28;20472;-88
2023/08/05 08:19:18;;;;;;;2.00;1.17;;;;;;;;;;5048577;28;20048;-88
2023/08/05 08:21:45;;;;;;;0.90;0.90;;;;;;;;;;5055081;28;20033;-89
2023/08/05 08:24:11;;;;;;;1.05;0.95;;;;;;;;;;5037423;28;20045;-90
2023/08/05 08:26:36;;;;;;;1.83;1.30;;;;;;;;;;5051580;28;20017;-90
2023/08/05 08:29:02;;;;;;;1.20;1.10;;;;;;;;;;5042033;28;20056;-89
2023/08/05 08:31:30;;;;;;;1.55;1.13;;;;;;;;;;5046568;28;20024;-89
2023/08/05 08:33:56;;;;;;;1.50;1.25;;;;;;;;;;5062364;28;20033;-90
2023/08/05 08:36:23;;;;;;;1.30;1.20;;;;;;;;;;5052321;28;20033;-90
2023/08/05 08:38:49;;;;;;;1.88;1.40;;;;;;;;;;5040850;28;20062;-90
2023/08/05 08:41:14;;;;;;;1.98;1.77;;;;;;;;;;5037421;28;20053;-90
2023/08/05 08:43:42;;;;;;;2.08;1.88;;;;;;;;;;5064401;28;20040;-89
2023/08/05 08:46:08;;;;;;;2.45;1.90;;;;;;;;;;5053523;28;20039;-90
2023/08/05 08:48:37;;;;;;;2.60;2.20;;;;;;;;;;5041654;28;20041;-89
2023/08/05 08:51:03;;;;;;;2.60;2.30;;;;;;;;;;5041433;28;20032;-89
2023/08/05 08:53:31;;;;;;;2.80;2.50;;;;;;;;;;5051728;28;20023;-89
2023/08/05 08:55:57;;;;;;;2.63;2.28;;;;;;;;;;5063183;28;20029;-89
2023/08/05 08:58:23;;;;;;;3.55;2.10;;;;;;;;;;5052915;28;20041;-89
2023/08/05 09:00:49;;;;;;;3.83;2.60;;;;;;;;;;5046220;28;20044;-90
2023/08/05 09:03:16;;;;;;;4.10;2.10;;;;;;;;;;5055053;28;20112;-89
2023/08/05 09:05:53;;;;;;;2.60;2.30;;;;;;;;;;5056928;28;20044;-90
2023/08/05 09:08:19;;;;;;;3.30;2.30;;;;;;;;;;5052751;28;20401;-89
2023/08/05 09:10:45;;;;;;;3.20;2.50;;;;;;;;;;5047493;28;20764;-89
2023/08/05 09:13:11;;;;;;;4.43;2.80;;;;;;;;;;5058220;28;20032;-89
2023/08/05 09:15:37;;;;;;;3.30;2.85;;;;;;;;;;5052728;28;20033;-86
2023/08/05 09:18:04;;;;;;;2.90;2.60;;;;;;;;;;5052689;28;20034;-86
2023/08/05 09:20:31;;;;;;;3.53;2.58;;;;;;;;;;5059196;28;20488;-86
2023/08/05 09:23:01;;;;;;;3.50;3.20;;;;;;;;;;5051511;28;20037;-86
2023/08/05 09:25:27;;;;;;;4.88;2.90;;;;;;;;;;5047435;28;20500;-86
2023/08/05 09:27:53;;;;;;;3.42;2.90;;;;;;;;;;5041016;28;20041;-86
2023/08/05 09:30:23;;;;;;;2.78;2.50;;;;;;;;;;5051144;28;20041;-85
2023/08/05 09:32:50;;;;;;;3.03;2.78;;;;;;;;;;5059780;28;20055;-85
2023/08/05 09:35:16;;;;;;;3.20;2.90;;;;;;;;;;5055517;28;20403;-85
2023/08/05 09:37:46;;;;;;;3.20;2.90;;;;;;;;;;5046941;28;20025;-86
2023/08/05 09:40:19;;;;;;;3.10;2.80;;;;;;;;;;5040262;28;20042;-86
2023/08/05 09:42:57;;;;;;;3.38;2.67;;;;;;;;;;5068273;28;20040;-87
2023/08/05 09:45:25;;;;;;;4.70;3.50;;;;;;;;;;5056225;28;20029;-87
2023/08/05 09:48:00;;;;;;;3.35;3.05;;;;;;;;;;5046438;28;20029;-88
2023/08/05 09:50:27;;;;;;;3.33;3.03;;;;;;;;;;5044815;28;20043;-87
2023/08/05 09:52:56;;;;;;;4.45;3.10;;;;;;;;;;5056618;28;20491;-87
2023/08/05 09:55:22;;;;;;;4.90;3.47;;;;;;;;;;5055177;28;20127;-82
2023/08/05 09:57:48;;;;;;;4.10;3.70;;;;;;;;;;5050412;28;20071;-82
2023/08/05 10:00:14;;;;;;;3.97;3.22;;;;;;;;;;5049719;28;20472;-86
2023/08/05 10:02:41;;;;;;;5.18;3.60;;;;;;;;;;5050996;28;20041;-87
2023/08/05 10:05:11;;;;;;;3.83;3.42;;;;;;;;;;5051040;28;20071;-87
2023/08/05 10:07:41;;;;;;;3.92;3.50;;;;;;;;;;5054410;28;20053;-88
2023/08/05 10:10:11;;;;;;;3.75;3.42;;;;;;;;;;5046584;28;20116;-89
2023/08/05 10:13:03;;;;;;;4.40;3.10;;;;;;;;;;5056841;28;20025;-89
2023/08/05 10:15:31;;;;;;;3.55;3.25;;;;;;;;;;5048893;28;20044;-85
2023/08/05 10:17:57;;;;;;;3.55;3.20;;;;;;;;;;5056418;28;20028;-86
2023/08/05 10:20:23;;;;;;;4.95;3.40;;;;;;;;;;5053617;28;20452;-85
2023/08/05 10:23:09;;;;;;;3.97;3.53;;;;;;;;;;5053919;28;20037;-86
2023/08/05 10:25:40;;;;;;;5.75;3.60;;;;;;;;;;5049842;28;20044;-86
2023/08/05 10:28:06;;;;;;;6.70;3.72;;;;;;;;;;5045023;28;20043;-87
2023/08/05 10:30:40;;;;;;;4.35;3.70;;;;;;;;;;5061867;28;20115;-86
2023/08/05 10:33:06;;;;;;;5.75;3.65;;;;;;;;;;5060553;28;20044;-86
2023/08/05 10:35:39;;;;;;;3.80;3.40;;;;;;;;;;5049849;28;20025;-88
2023/08/05 10:38:21;;;;;;;;;;;;;;;;;;5041973;28;20108;-86
2023/08/05 10:40:49;;;;;;;4.20;3.80;;;;;;;;;;5057489;28;19981;-86
2023/08/05 10:43:41;;;;;;;3.90;3.50;;;;;;;;;;5060613;28;20091;-86
2023/08/05 10:46:07;;;;;;;3.78;3.13;;;;;;;;;;5042808;28;20057;-86
2023/08/05 10:48:36;;;;;;;3.10;2.80;;;;;;;;;;5038415;28;20036;-88
2023/08/05 10:51:10;;;;;;;3.75;3.13;;;;;;;;;;5053584;28;20194;-90
2023/08/05 10:53:36;;;;;;;3.60;3.22;;;;;;;;;;5055182;28;20047;-89
2023/08/05 10:56:01;;;;;;;3.50;3.20;;;;;;;;;;5052705;28;20037;-88
2023/08/05 10:58:28;;;;;;;5.13;3.42;;;;;;;;;;5051014;28;20041;-88
2023/08/05 11:00:57;;;;;;;3.72;3.33;;;;;;;;;;5051844;28;20037;-88
2023/08/05 11:03:44;;;;;;;4.07;3.20;;;;;;;;;;5054619;28;20033;-88
2023/08/05 11:06:11;;;;;;;3.60;3.30;;;;;;;;;;5052614;28;20120;-89
2023/08/05 11:08:38;;;;;;;5.35;4.05;;;;;;;;;;5044453;28;20033;-88
2023/08/05 11:11:05;;;;;;;4.30;3.85;;;;;;;;;;5052958;28;20063;-88
2023/08/05 11:13:33;;;;;;;4.53;3.80;;;;;;;;;;5046525;28;20029;-89
2023/08/05 11:16:01;;;;;;;5.90;4.03;;;;;;;;;;5054715;28;20433;-89
2023/08/05 11:18:27;;;;;;;5.50;3.60;;;;;;;;;;5051948;28;20119;-87
2023/08/05 11:20:53;;;;;;;3.80;3.40;;;;;;;;;;5053356;28;20438;-88
2023/08/05 11:23:19;;;;;;;3.83;3.13;;;;;;;;;;5049347;28;20501;-89
2023/08/05 11:25:47;;;;;;;3.40;3.10;;;;;;;;;;5044607;28;20044;-87
2023/08/05 11:28:13;;;;;;;3.85;3.42;;;;;;;;;;5047528;28;20029;-89
2023/08/05 11:30:38;;;;;;;3.80;3.28;;;;;;;;;;5058644;28;20033;-88
2023/08/05 11:33:05;;;;;;;3.45;3.15;;;;;;;;;;5057198;28;20036;-88
2023/08/05 11:35:31;;;;;;;3.70;3.30;;;;;;;;;;5044237;28;20133;-88
2023/08/05 11:37:57;;;;;;;3.38;2.90;;;;;;;;;;5039665;28;20111;-88
2023/08/05 11:40:23;;;;;;;3.10;2.47;;;;;;;;;;5059815;28;20036;-88
2023/08/05 11:42:49;;;;;;;2.90;2.50;;;;;;;;;;5057122;28;20060;-88
2023/08/05 11:45:16;;;;;;;2.58;2.38;;;;;;;;;;5047004;28;20396;-91
2023/08/05 11:47:42;;;;;;;3.45;2.70;;;;;;;;;;5041986;28;20037;-90
2023/08/05 11:50:09;;;;;;;2.88;2.55;;;;;;;;;;5051452;28;20025;-90
2023/08/05 11:52:35;;;;;;;2.80;2.20;;;;;;;;;;5060712;28;20130;-89
2023/08/05 11:55:04;;;;;;;4.85;2.38;;;;;;;;;;5050546;28;20174;-89
2023/08/05 11:57:29;;;;;;;2.95;2.60;;;;;;;;;;5041143;28;20120;-91
2023/08/05 12:00:02;;;;;;;3.00;2.70;;;;;;;;;;5055368;28;20109;-92
2023/08/05 12:02:33;;;;;;;2.75;2.35;;;;;;;;;;5056421;28;20033;-90
2023/08/05 12:04:59;;;;;;;3.00;2.50;;;;;;;;;;5053792;28;20481;-90
2023/08/05 12:07:24;;;;;;;4.28;2.30;;;;;;;;;;5044078;28;20032;-87
2023/08/05 12:10:10;;;;;;;2.95;2.28;;;;;;;;;;5044929;28;20044;-82
2023/08/05 12:12:37;;;;;;;2.20;2.00;;;;;;;;;;5050268;28;20025;-82
2023/08/05 12:15:09;;;;;;;2.15;1.88;;;;;;;;;;5058958;28;20083;-82
2023/08/05 12:17:35;;;;;;;2.80;2.10;;;;;;;;;;5047794;28;20039;-83
2023/08/05 12:20:00;;;;;;;3.28;2.70;;;;;;;;;;5053857;28;20016;-89
2023/08/05 12:22:26;;;;;;;2.80;2.50;;;;;;;;;;5046688;28;20041;-89
2023/08/05 12:24:51;;;;;;;2.40;2.10;;;;;;;;;;5046883;28;20044;-90
2023/08/05 12:27:17;;;;;;;2.40;2.10;;;;;;;;;;5052919;28;20044;-88
2023/08/05 12:29:42;;;;;;;2.90;1.98;;;;;;;;;;5055841;28;20043;-89
2023/08/05 12:32:08;;;;;;;2.25;1.98;;;;;;;;;;5056270;28;20065;-89
2023/08/05 12:34:33;;;;;;;2.20;1.90;;;;;;;;;;5054116;28;20068;-85
2023/08/05 12:36:58;;;;;;;2.42;1.90;;;;;;;;;;5054759;28;20443;-86
2023/08/05 12:39:24;;;;;;;3.20;1.90;;;;;;;;;;5068768;28;20036;-83
2023/08/05 12:41:49;;;;;;;1.90;1.70;;;;;;;;;;5067786;28;20044;-84
2023/08/05 12:44:15;;;;;;;2.60;1.65;;;;;;;;;;5060873;28;20045;-86
2023/08/05 12:46:40;;;;;;;3.15;1.90;;;;;;;;;;5046605;28;20140;-83
2023/08/05 12:49:06;;;;;;;2.95;1.80;;;;;;;;;;5061325;28;20372;-83
2023/08/05 12:51:31;;;;;;;2.55;1.70;;;;;;;;;;5070396;28;20037;-85
2023/08/05 12:53:56;;;;;;;2.30;1.58;;;;;;;;;;5065134;28;20047;-84
2023/08/05 12:56:22;;;;;;;3.35;1.85;;;;;;;;;;5057887;28;20116;-83
2023/08/05 12:58:48;;;;;;;2.50;1.70;;;;;;;;;;5052664;28;20029;-83
2023/08/05 13:01:13;;;;;;;2.03;1.80;;;;;;;;;;5074729;28;20049;-86
2023/08/05 13:03:39;;;;;;;2.25;1.80;;;;;;;;;;5062029;28;20388;-88
2023/08/05 13:06:04;;;;;;;2.08;1.88;;;;;;;;;;5049904;28;20041;-89
2023/08/05 13:08:30;;;;;;;2.63;2.00;;;;;;;;;;5047058;28;20029;-90
2023/08/05 13:10:55;;;;;;;4.03;2.10;;;;;;;;;;5053506;28;20199;-87
2023/08/05 13:13:21;;;;;;;2.05;1.70;;;;;;;;;;5062438;28;20036;-89
2023/08/05 13:15:46;;;;;;;2.10;1.90;;;;;;;;;;5052210;28;20133;-88
2023/08/05 13:18:12;;;;;;;2.63;1.90;;;;;;;;;;5045926;28;20120;-88
2023/08/05 13:20:37;;;;;;;2.60;2.00;;;;;;;;;;5056120;28;20037;-89
2023/08/05 13:23:02;;;;;;;2.00;1.80;;;;;;;;;;5049429;28;20053;-88
2023/08/05 13:25:28;;;;;;;2.63;1.92;;;;;;;;;;5060291;28;20024;-91
2023/08/05 13:27:53;;;;;;;2.35;2.00;;;;;;;;;;5058452;28;20522;-89
2023/08/05 13:30:20;;;;;;;3.08;2.08;;;;;;;;;;5054809;28;20032;-90
2023/08/05 13:32:46;;;;;;;4.10;2.05;;;;;;;;;;5054862;28;20056;-90
2023/08/05 13:35:12;;;;;;;2.42;1.98;;;;;;;;;;5048274;28;20149;-90
2023/08/05 13:37:37;;;;;;;1.88;1.77;;;;;;;;;;5046985;28;20025;-90
2023/08/05 13:40:03;;;;;;;2.00;1.80;;;;;;;;;;5062853;28;20029;-89
2023/08/05 13:42:29;;;;;;;2.13;1.60;;;;;;;;;;5047349;28;20099;-90
2023/08/05 13:44:54;;;;;;;1.60;1.50;;;;;;;;;;5040993;28;20380;-92
2023/08/05 13:47:20;;;;;;;2.40;1.75;;;;;;;;;;5060458;28;20043;-90
2023/08/05 13:49:45;;;;;;;1.70;1.60;;;;;;;;;;5060609;28;20037;-90
2023/08/05 13:52:11;;;;;;;1.77;1.50;;;;;;;;;;5052885;28;20029;-91
2023/08/05 13:54:36;;;;;;;2.78;1.80;;;;;;;;;;5055100;28;20396;-89
2023/08/05 13:57:02;;;;;;;2.88;1.80;;;;;;;;;;5052828;28;20056;-89
2023/08/05 13:59:27;;;;;;;2.10;1.73;;;;;;;;;;5063438;28;20064;-90
2023/08/05 14:01:53;;;;;;;1.90;1.60;;;;;;;;;;5059988;28;20068;-89
2023/08/05 14:04:18;;;;;;;2.13;1.70;;;;;;;;;;5051150;28;20042;-89
2023/08/05 14:06:44;;;;;;;1.70;1.60;;;;;;;;;;5051325;28;20072;-89
2023/08/05 14:09:09;;;;;;;2.08;1.70;;;;;;;;;;5049150;28;20025;-89
2023/08/05 14:11:35;;;;;;;2.25;1.90;;;;;;;;;;5061188;28;20483;-89
2023/08/05 14:14:01;;;;;;;1.63;1.52;;;;;;;;;;5053568;28;20064;-88
2023/08/05 14:16:27;;;;;;;2.22;1.52;;;;;;;;;;5045385;28;20025;-89
2023/08/05 14:18:52;;;;;;;2.10;1.55;;;;;;;;;;5052025;28;20074;-90
2023/08/05 14:21:18;;;;;;;1.90;1.60;;;;;;;;;;5048881;28;20044;-88
2023/08/05 14:23:43;;;;;;;2.45;1.83;;;;;;;;;;5056457;28;20503;-87
2023/08/05 14:26:08;;;;;;;12.68;2.05;;;;;;;;;;5050078;28;20135;-87
2023/08/05 14:28:34;;;;;;;4.47;1.90;;;;;;;;;;5051277;28;20033;-87
2023/08/05 14:31:08;;;;;;;2.60;1.75;;;;;;;;;;5045559;28;20037;-87
2023/08/05 14:33:34;;;;;;;2.08;1.60;;;;;;;;;;5042344;28;20032;-88
2023/08/05 14:35:59;;;;;;;3.13;1.90;;;;;;;;;;5050079;28;20033;-87
2023/08/05 14:38:25;;;;;;;2.53;1.40;;;;;;;;;;5047477;28;20518;-87
2023/08/05 14:40:50;;;;;;;2.90;2.10;;;;;;;;;;5052288;28;20532;-88